Time;durP1;ratioP1;P1;durP2;ratioP2;P2;SDS_P1;SDS_P2;PMS_P1;PMS_P2;Temp;Humidity;BMP_temperature;BMP_pressure;BME280_temperature;BME280_humidity;BME280_pressure;Samples;Min_cycle;Max_cycle;Signal;HPM_P1;HPM_P2
2023/03/24 00:02:15;;;;;;;8.90;5.10;;;;;;;12.31;73.38;98412.30;107962;1307;22235;-41
2023/03/24 00:04:41;;;;;;;9.80;5.60;;;;;;;12.28;73.82;98406.95;107976;1307;22539;-40
2023/03/24 00:07:07;;;;;;;7.10;5.00;;;;;;;12.23;73.85;98403.96;107981;1307;22484;-41
2023/03/24 00:09:32;;;;;;;10.60;5.60;;;;;;;12.17;74.34;98400.53;107972;1307;22275;-41
2023/03/24 00:11:58;;;;;;;10.40;5.80;;;;;;;12.14;74.26;98405.67;107977;1307;22928;-41
2023/03/24 00:14:24;;;;;;;9.80;5.60;;;;;;;12.12;74.02;98411.28;107961;1307;22227;-41
2023/03/24 00:16:51;;;;;;;8.30;5.70;;;;;;;12.08;73.91;98409.12;107989;1307;22317;-42
2023/03/24 00:19:17;;;;;;;9.40;5.70;;;;;;;12.03;74.51;98408.09;107989;1307;23119;-42
2023/03/24 00:21:43;;;;;;;9.50;5.90;;;;;;;12.02;75.01;98408.00;108019;1307;22231;-42
2023/03/24 00:24:10;;;;;;;10.40;6.20;;;;;;;12.00;75.35;98407.68;107991;1307;23238;-42
2023/03/24 00:26:37;;;;;;;7.90;5.70;;;;;;;11.98;75.18;98407.62;107991;1307;22568;-42
2023/03/24 00:29:05;;;;;;;8.60;5.20;;;;;;;11.97;75.30;98405.05;107998;1307;23239;-41
2023/03/24 00:31:31;;;;;;;7.90;5.30;;;;;;;11.95;75.11;98403.14;107992;1307;22932;-41
2023/03/24 00:33:56;;;;;;;8.70;5.60;;;;;;;11.92;75.44;98402.27;107974;1307;22263;-41
2023/03/24 00:36:24;;;;;;;8.20;5.50;;;;;;;11.90;75.58;98401.67;107969;1307;22247;-42
2023/03/24 00:38:51;;;;;;;8.50;5.30;;;;;;;11.90;75.54;98397.65;107976;1307;22326;-41
2023/03/24 00:41:18;;;;;;;8.90;4.50;;;;;;;11.89;75.88;98394.92;107990;1307;22249;-41
2023/03/24 00:43:44;;;;;;;11.40;5.20;;;;;;;11.87;76.13;98392.42;107994;1307;22960;-41
2023/03/24 00:46:27;;;;;;;13.10;5.10;;;;;;;11.85;76.37;98386.71;108010;1307;23074;-41
2023/03/24 00:49:01;;;;;;;7.00;4.60;;;;;;;11.84;76.64;98384.89;107994;1307;22426;-41
2023/03/24 00:51:28;;;;;;;9.60;5.20;;;;;;;11.83;76.77;98380.05;108004;1307;23050;-41
2023/03/24 00:53:56;;;;;;;;;;;;;;;11.83;76.55;98378.13;107991;1307;22487;-40
2023/03/24 00:56:26;;;;;;;7.90;5.00;;;;;;;11.82;76.29;98377.01;107982;1307;22409;-40
2023/03/24 00:58:53;;;;;;;6.90;4.60;;;;;;;11.81;76.55;98377.03;107995;1307;22432;-40
2023/03/24 01:01:20;;;;;;;9.80;5.60;;;;;;;11.82;76.43;98380.30;107981;1307;22434;-40
2023/03/24 01:03:46;;;;;;;12.50;5.80;;;;;;;11.81;76.69;98380.21;107964;1307;23267;-40
2023/03/24 01:06:17;;;;;;;7.60;5.40;;;;;;;11.78;77.23;98375.16;107990;1307;22423;-40
2023/03/24 01:08:43;;;;;;;12.60;5.50;;;;;;;11.78;77.38;98375.20;107988;1307;22945;-41
2023/03/24 01:11:09;;;;;;;13.60;5.90;;;;;;;11.77;77.57;98373.49;107980;1307;22531;-43
2023/03/24 01:13:35;;;;;;;11.30;5.60;;;;;;;11.76;77.25;98364.76;108006;1307;22238;-41
2023/03/24 01:16:00;;;;;;;11.40;6.00;;;;;;;11.76;77.21;98363.92;107976;1307;22244;-40
2023/03/24 01:18:26;;;;;;;10.20;6.00;;;;;;;11.73;77.77;98361.14;107978;1307;22333;-41
2023/03/24 01:20:53;;;;;;;10.30;6.30;;;;;;;11.68;78.13;98359.92;107994;1307;23644;-41
2023/03/24 01:23:22;;;;;;;10.10;6.70;;;;;;;11.64;78.40;98358.27;107983;1307;23167;-41
2023/03/24 01:25:49;;;;;;;17.50;7.40;;;;;;;11.62;78.46;98359.02;107986;1307;23050;-41
2023/03/24 01:28:20;;;;;;;12.50;7.30;;;;;;;11.58;78.82;98353.36;108011;1307;23670;-41
2023/03/24 01:30:45;;;;;;;11.00;7.10;;;;;;;11.52;79.38;98352.85;108003;1307;22976;-44
2023/03/24 01:33:11;;;;;;;13.60;7.90;;;;;;;11.50;78.44;98352.09;107988;1307;22244;-40
2023/03/24 01:35:36;;;;;;;14.70;8.80;;;;;;;11.44;79.41;98353.95;107967;1307;22726;-40
2023/03/24 01:38:07;;;;;;;16.80;8.40;;;;;;;11.42;79.35;98352.42;107983;1307;22309;-41
2023/03/24 01:40:36;;;;;;;19.20;9.20;;;;;;;11.39;79.69;98353.33;107977;1307;22290;-41
2023/03/24 01:43:01;;;;;;;17.40;10.60;;;;;;;11.33;80.38;98349.33;108008;1307;22327;-40
2023/03/24 01:45:47;;;;;;;18.00;10.20;;;;;;;11.29;80.54;98349.49;107997;1307;22439;-41
2023/03/24 01:48:22;;;;;;;19.10;11.00;;;;;;;11.25;80.67;98348.19;107975;1307;22229;-41
2023/03/24 01:50:54;;;;;;;21.90;11.10;;;;;;;11.21;81.27;98345.14;107963;1307;23291;-40
2023/03/24 01:53:20;;;;;;;25.80;11.90;;;;;;;11.18;81.58;98345.17;107993;1307;22206;-41
2023/03/24 01:55:47;;;;;;;18.70;11.00;;;;;;;11.16;81.59;98342.67;107992;1307;22400;-41
2023/03/24 01:58:13;;;;;;;17.80;11.10;;;;;;;11.14;82.04;98344.05;107983;1307;22248;-41
2023/03/24 02:00:40;;;;;;;20.30;11.50;;;;;;;11.14;81.48;98351.04;107998;1307;23028;-41
2023/03/24 02:03:10;;;;;;;22.30;11.70;;;;;;;11.16;81.27;98352.91;107994;1307;22411;-41
2023/03/24 02:05:38;;;;;;;25.60;13.00;;;;;;;11.17;81.27;98349.69;108001;1307;22313;-41
2023/03/24 02:08:12;;;;;;;23.00;12.80;;;;;;;11.16;81.41;98347.42;107992;1307;22231;-41
2023/03/24 02:10:38;;;;;;;27.30;12.20;;;;;;;11.17;81.69;98347.92;107998;1307;22417;-41
2023/03/24 02:13:05;;;;;;;22.90;12.50;;;;;;;11.17;81.67;98350.52;108005;1307;22250;-41
2023/03/24 02:15:34;;;;;;;22.50;12.10;;;;;;;11.17;81.97;98351.04;107986;1307;22369;-42
2023/03/24 02:18:19;;;;;;;25.10;12.40;;;;;;;11.19;81.77;98355.48;108009;1307;22473;-41
2023/03/24 02:21:15;;;;;;;27.00;12.70;;;;;;;11.18;82.28;98351.70;107980;1307;22267;-41
2023/03/24 02:24:36;;;;;;;22.60;12.60;;;;;;;11.18;81.95;98352.05;108008;1307;22414;-41
2023/03/24 02:27:02;;;;;;;21.70;11.90;;;;;;;11.18;82.12;98352.88;107996;1307;22256;-42
2023/03/24 02:30:05;;;;;;;27.50;12.60;;;;;;;11.16;82.31;98344.80;107999;1307;22409;-41
2023/03/24 02:32:45;;;;;;;20.80;12.20;;;;;;;11.20;82.12;98346.48;107920;1307;22256;-41
2023/03/24 02:35:32;;;;;;;24.00;12.30;;;;;;;11.19;82.06;98346.33;107990;1307;22775;-41
2023/03/24 02:38:12;;;;;;;21.30;11.60;;;;;;;11.20;82.04;98344.73;107967;1307;23081;-41
2023/03/24 02:41:19;;;;;;;19.50;11.30;;;;;;;11.20;81.94;98344.37;107994;1307;22313;-41
2023/03/24 02:44:14;;;;;;;23.80;11.70;;;;;;;11.20;81.86;98337.88;107650;1307;22291;-41
2023/03/24 02:46:55;;;;;;;22.90;11.90;;;;;;;11.21;81.79;98338.88;108015;1307;22244;-42
2023/03/24 02:49:30;;;;;;;21.30;10.30;;;;;;;11.18;81.89;98339.63;108010;1307;23099;-42
2023/03/24 02:52:05;;;;;;;20.40;10.90;;;;;;;11.17;81.78;98338.58;107987;1307;22321;-41
2023/03/24 02:54:51;;;;;;;20.30;10.90;;;;;;;11.18;81.75;98341.70;108006;1307;22541;-42
2023/03/24 02:57:35;;;;;;;22.60;11.20;;;;;;;11.12;82.39;98336.80;107990;1307;22475;-41
2023/03/24 03:00:08;;;;;;;19.60;11.00;;;;;;;11.12;82.04;98337.55;107994;1307;22266;-42
2023/03/24 03:04:38;;;;;;;21.20;11.40;;;;;;;11.13;82.43;98332.90;107005;1307;545811;-41
2023/03/24 03:07:08;;;;;;;22.90;11.50;;;;;;;11.11;82.31;98328.16;107665;1310;22401;-41
2023/03/24 03:09:40;;;;;;;24.00;11.30;;;;;;;11.10;82.09;98324.89;107658;1310;23168;-41
2023/03/24 03:12:09;;;;;;;21.80;11.40;;;;;;;11.11;82.14;98330.42;107651;1310;22410;-42
2023/03/24 03:14:39;;;;;;;18.40;11.10;;;;;;;11.12;82.03;98328.78;107652;1310;22440;-41
2023/03/24 03:17:13;;;;;;;19.90;11.60;;;;;;;11.11;82.20;98325.16;107532;1308;182035;-41
2023/03/24 03:19:46;;;;;;;27.00;12.90;;;;;;;11.10;81.83;98324.88;107878;1308;22226;-42
2023/03/24 03:22:22;;;;;;;22.80;12.70;;;;;;;11.09;82.44;98324.63;107886;1308;22260;-41
2023/03/24 03:24:51;;;;;;;22.20;12.30;;;;;;;11.07;82.70;98318.30;107913;1308;22243;-41
2023/03/24 03:27:28;;;;;;;21.40;12.20;;;;;;;11.05;82.86;98316.14;107901;1307;23428;-41
2023/03/24 03:29:59;;;;;;;23.60;13.40;;;;;;;11.06;82.70;98319.06;107915;1308;22246;-41
2023/03/24 03:32:30;;;;;;;22.60;12.00;;;;;;;11.05;83.03;98315.97;107886;1308;22306;-41
2023/03/24 03:35:28;;;;;;;20.90;11.00;;;;;;;11.06;82.63;98316.89;107923;1308;22440;-42
2023/03/24 03:38:04;;;;;;;20.50;10.80;;;;;;;11.07;82.74;98317.90;107895;1308;23086;-42
2023/03/24 03:40:38;;;;;;;20.60;10.80;;;;;;;11.07;82.89;98320.39;107906;1308;22370;-43
2023/03/24 03:43:04;;;;;;;19.00;10.20;;;;;;;11.09;83.05;98322.29;107928;1303;22211;-41
2023/03/24 03:45:34;;;;;;;14.60;8.90;;;;;;;11.12;82.95;98322.61;108027;1307;23229;-41
2023/03/24 03:48:00;;;;;;;17.90;10.00;;;;;;;11.13;83.02;98317.98;108008;1306;22372;-41
2023/03/24 03:50:26;;;;;;;18.30;9.20;;;;;;;11.18;82.77;98318.89;108015;1307;22459;-41
2023/03/24 03:52:52;;;;;;;16.60;9.20;;;;;;;11.21;82.92;98313.95;108031;1307;22226;-41
2023/03/24 03:55:18;;;;;;;18.00;8.90;;;;;;;11.24;82.51;98311.95;108020;1306;22247;-41
2023/03/24 03:57:44;;;;;;;14.60;8.40;;;;;;;11.26;82.39;98305.98;107997;1307;22526;-41
2023/03/24 04:00:18;;;;;;;12.70;8.50;;;;;;;11.28;82.59;98311.80;108027;1306;22901;-41
2023/03/24 04:03:04;;;;;;;16.30;8.60;;;;;;;11.29;82.62;98313.86;108033;1307;23036;-41
2023/03/24 04:05:46;;;;;;;14.90;8.10;;;;;;;11.29;82.37;98311.89;108028;1307;22492;-41
2023/03/24 04:08:24;;;;;;;19.50;11.70;;;;;;;11.30;82.34;98308.37;108020;1307;22401;-41
2023/03/24 04:11:13;;;;;;;16.80;9.40;;;;;;;11.30;82.20;98298.65;108005;1307;22233;-40
2023/03/24 04:14:07;;;;;;;12.30;8.10;;;;;;;11.29;82.41;98293.14;108016;1307;22483;-41
2023/03/24 04:16:45;;;;;;;19.70;8.40;;;;;;;11.30;82.45;98286.95;107242;1314;22354;-41
2023/03/24 04:19:21;;;;;;;21.00;8.70;;;;;;;11.28;82.53;98279.52;107226;1314;22283;-41
2023/03/24 04:21:53;;;;;;;14.90;7.40;;;;;;;11.30;82.17;98274.30;107234;1314;23173;-41
2023/03/24 04:24:48;;;;;;;11.80;7.80;;;;;;;11.32;82.29;98277.67;107223;1314;22224;-42
2023/03/24 04:27:26;;;;;;;12.70;7.50;;;;;;;11.33;82.24;98279.16;107230;1314;22339;-41
2023/03/24 04:30:22;;;;;;;17.40;7.80;;;;;;;11.32;82.48;98278.23;107238;1314;22246;-41
2023/03/24 04:32:53;;;;;;;15.70;7.80;;;;;;;11.33;82.37;98273.56;107148;1314;23034;-41
2023/03/24 04:35:30;;;;;;;17.60;7.50;;;;;;;11.32;82.61;98267.27;107004;1314;22283;-41
2023/03/24 04:38:17;;;;;;;10.60;6.60;;;;;;;11.36;82.65;98267.17;107221;1314;22307;-41
2023/03/24 04:40:48;;;;;;;10.80;7.10;;;;;;;11.40;82.20;98266.86;107226;1314;23201;-41
2023/03/24 04:43:17;;;;;;;14.50;7.90;;;;;;;11.43;82.05;98265.05;107217;1314;22275;-41
2023/03/24 04:45:48;;;;;;;16.70;7.80;;;;;;;11.47;82.11;98268.98;107222;1314;22270;-41
2023/03/24 04:48:16;;;;;;;19.40;8.40;;;;;;;11.48;82.09;98268.39;107221;1314;23508;-40
2023/03/24 04:50:48;;;;;;;17.40;7.80;;;;;;;11.46;82.02;98264.98;107212;1314;22268;-41
2023/03/24 04:53:14;;;;;;;14.70;7.90;;;;;;;11.43;82.26;98258.77;107403;1307;22442;-41
2023/03/24 04:55:48;;;;;;;13.50;7.30;;;;;;;11.42;82.14;98260.74;108000;1307;22414;-41
2023/03/24 04:58:14;;;;;;;16.50;8.20;;;;;;;11.43;82.01;98260.01;108004;1307;22839;-41
2023/03/24 05:00:42;;;;;;;18.40;7.90;;;;;;;11.42;82.14;98261.64;107979;1307;22220;-41
2023/03/24 05:03:12;;;;;;;15.60;7.60;;;;;;;11.41;81.93;98258.20;108015;1307;22227;-41
2023/03/24 05:05:45;;;;;;;21.50;8.00;;;;;;;11.42;82.05;98262.48;107996;1307;22279;-41
2023/03/24 05:08:11;;;;;;;13.70;8.00;;;;;;;11.44;82.17;98262.69;107997;1307;22301;-41
2023/03/24 05:10:37;;;;;;;14.40;7.20;;;;;;;11.44;82.40;98262.04;108001;1307;22216;-42
2023/03/24 05:13:04;;;;;;;20.50;8.20;;;;;;;11.44;82.39;98261.70;107997;1307;22170;-42
2023/03/24 05:15:29;;;;;;;281.30;18.40;;;;;;;11.44;82.21;98258.86;108008;1307;22225;-41
2023/03/24 05:17:55;;;;;;;24.00;7.60;;;;;;;11.47;82.06;98260.25;107989;1307;22274;-42
2023/03/24 05:20:21;;;;;;;20.00;7.30;;;;;;;11.48;81.90;98260.36;108006;1307;22216;-42
2023/03/24 05:22:47;;;;;;;11.60;6.80;;;;;;;11.49;81.77;98265.10;108012;1307;22447;-42
2023/03/24 05:25:12;;;;;;;9.70;6.20;;;;;;;11.53;81.68;98266.05;108034;1307;22242;-42
2023/03/24 05:27:38;;;;;;;12.30;6.20;;;;;;;11.54;81.66;98269.02;108022;1307;23029;-42
2023/03/24 05:30:05;;;;;;;19.30;6.70;;;;;;;11.54;81.71;98266.02;108001;1307;22199;-42
2023/03/24 05:32:31;;;;;;;11.80;6.80;;;;;;;11.55;81.53;98267.50;108033;1307;23157;-42
2023/03/24 05:34:56;;;;;;;11.00;6.70;;;;;;;11.55;81.54;98269.43;108008;1307;22280;-42
2023/03/24 05:37:22;;;;;;;12.70;7.20;;;;;;;11.59;81.43;98272.48;108003;1307;22703;-43
2023/03/24 05:39:47;;;;;;;11.30;6.40;;;;;;;11.63;81.18;98266.70;108026;1307;22234;-42
2023/03/24 05:42:13;;;;;;;13.30;6.70;;;;;;;11.62;81.28;98267.55;107977;1307;22427;-41
2023/03/24 05:44:39;;;;;;;22.00;6.60;;;;;;;11.65;81.25;98265.39;107995;1307;22225;-42
2023/03/24 05:47:04;;;;;;;12.60;7.50;;;;;;;11.67;81.11;98265.59;107995;1307;22708;-41
2023/03/24 05:49:30;;;;;;;15.20;7.30;;;;;;;11.67;81.25;98265.20;108004;1307;23306;-41
2023/03/24 05:51:57;;;;;;;12.10;7.40;;;;;;;11.67;82.00;98264.53;108037;1307;22473;-42
2023/03/24 05:54:22;;;;;;;12.20;7.10;;;;;;;11.69;82.28;98261.93;107557;1307;23139;-41
2023/03/24 05:56:48;;;;;;;14.20;7.30;;;;;;;11.69;82.82;98264.73;108008;1307;22244;-42
2023/03/24 05:59:14;;;;;;;12.80;7.70;;;;;;;11.69;83.06;98266.79;108016;1307;23097;-42
2023/03/24 06:01:44;;;;;;;15.50;6.50;;;;;;;11.69;84.11;98263.84;108009;1307;23131;-41
2023/03/24 06:04:10;;;;;;;13.00;6.80;;;;;;;11.70;84.64;98259.73;108004;1307;22999;-42
2023/03/24 06:06:37;;;;;;;9.50;5.90;;;;;;;11.72;84.35;98262.58;107991;1307;22240;-41
2023/03/24 06:09:03;;;;;;;12.70;6.60;;;;;;;11.69;85.45;98262.59;108008;1307;22232;-41
2023/03/24 06:11:29;;;;;;;11.40;6.00;;;;;;;11.69;85.80;98262.59;108012;1307;22243;-41
2023/03/24 06:13:59;;;;;;;11.90;6.50;;;;;;;11.70;86.47;98265.71;107994;1307;22258;-41
2023/03/24 06:16:28;;;;;;;13.40;7.50;;;;;;;11.67;86.70;98264.52;107997;1307;22453;-43
2023/03/24 06:18:54;;;;;;;12.00;6.90;;;;;;;11.67;86.73;98262.92;108012;1307;22508;-41
2023/03/24 06:21:20;;;;;;;18.90;12.20;;;;;;;11.69;86.57;98259.62;108012;1307;22224;-41
2023/03/24 06:23:46;;;;;;;16.20;8.40;;;;;;;11.70;87.54;98260.77;108005;1307;22241;-41
2023/03/24 06:26:13;;;;;;;13.00;7.00;;;;;;;11.73;86.61;98260.38;108014;1307;22304;-41
2023/03/24 06:28:41;;;;;;;13.00;6.90;;;;;;;11.75;86.25;98258.80;107993;1307;22292;-41
2023/03/24 06:31:13;;;;;;;14.20;6.80;;;;;;;11.78;85.44;98256.65;108006;1307;22447;-41
2023/03/24 06:33:41;;;;;;;11.80;6.30;;;;;;;11.79;85.35;98254.09;108012;1307;23735;-41
2023/03/24 06:36:06;;;;;;;;;;;;;;;11.80;85.49;98251.02;108016;1307;22449;-42
2023/03/24 06:38:32;;;;;;;10.70;6.20;;;;;;;11.80;86.69;98245.77;108016;1307;22477;-41
2023/03/24 06:41:02;;;;;;;12.30;6.20;;;;;;;11.79;86.80;98239.34;108018;1307;22538;-41
2023/03/24 06:43:27;;;;;;;11.70;7.10;;;;;;;11.80;87.15;98231.91;107971;1295;22236;-40
2023/03/24 06:45:52;;;;;;;16.90;8.60;;;;;;;11.84;87.50;98227.41;107989;1307;22443;-42
2023/03/24 06:48:18;;;;;;;16.90;8.30;;;;;;;11.89;87.04;98223.98;107987;1307;22244;-40
2023/03/24 06:50:43;;;;;;;12.20;6.90;;;;;;;11.90;87.87;98217.26;107890;1308;23039;-40
2023/03/24 06:53:09;;;;;;;14.70;6.60;;;;;;;11.95;87.82;98213.91;107860;1308;23079;-41
2023/03/24 06:55:35;;;;;;;14.30;7.90;;;;;;;11.99;87.99;98205.54;107858;1308;22333;-42
2023/03/24 06:58:00;;;;;;;17.60;8.90;;;;;;;12.04;88.31;98203.56;107874;1308;22305;-41
2023/03/24 07:00:27;;;;;;;19.20;8.60;;;;;;;12.09;88.30;98197.88;107872;1308;22415;-42
2023/03/24 07:02:53;;;;;;;;;;;;;;;12.14;88.41;98194.00;107850;1308;22485;-42
2023/03/24 07:05:18;;;;;;;9.20;6.00;;;;;;;12.21;88.03;98191.14;107850;1308;22221;-42
2023/03/24 07:07:43;;;;;;;13.00;5.90;;;;;;;12.25;87.90;98188.48;107862;1308;22461;-42
2023/03/24 07:10:09;;;;;;;13.00;5.70;;;;;;;12.25;88.40;98192.42;107848;1308;22275;-42
2023/03/24 07:12:35;;;;;;;10.20;5.30;;;;;;;12.32;88.00;98188.73;107864;1308;22422;-42
2023/03/24 07:15:03;;;;;;;6.90;4.80;;;;;;;12.40;87.87;98180.14;107874;1308;22232;-42
2023/03/24 07:17:28;;;;;;;11.20;5.60;;;;;;;12.49;87.82;98177.64;107836;1308;22249;-41
2023/03/24 07:19:53;;;;;;;11.10;5.30;;;;;;;12.59;87.44;98177.70;107866;1308;22436;-41
2023/03/24 07:22:19;;;;;;;9.10;5.30;;;;;;;12.67;87.60;98173.58;107855;1308;22237;-41
2023/03/24 07:24:44;;;;;;;6.20;5.00;;;;;;;12.74;87.47;98168.63;107870;1308;22234;-40
2023/03/24 07:27:10;;;;;;;7.90;4.50;;;;;;;12.81;86.79;98167.54;107855;1308;22823;-41
2023/03/24 07:29:36;;;;;;;8.40;4.80;;;;;;;12.87;86.59;98166.27;107859;1308;23135;-42
2023/03/24 07:32:02;;;;;;;8.00;4.40;;;;;;;12.97;86.00;98163.38;107856;1308;22222;-42
2023/03/24 07:34:28;;;;;;;4.90;3.70;;;;;;;13.05;85.48;98165.02;107874;1308;22265;-40
2023/03/24 07:36:53;;;;;;;8.60;4.90;;;;;;;13.18;84.95;98158.61;107850;1308;22936;-41
2023/03/24 07:39:20;;;;;;;8.30;4.70;;;;;;;13.29;84.72;98158.94;107849;1308;22274;-41
2023/03/24 07:41:46;;;;;;;;;;;;;;;13.44;84.34;98163.46;107876;1308;22472;-42
2023/03/24 07:44:12;;;;;;;6.30;4.30;;;;;;;13.62;83.11;98157.39;107880;1308;22215;-42
2023/03/24 07:46:37;;;;;;;11.20;4.60;;;;;;;13.78;83.18;98161.83;107846;1308;22896;-41
2023/03/24 07:49:03;;;;;;;7.50;4.40;;;;;;;13.88;82.19;98160.23;107863;1308;22218;-41
2023/03/24 07:51:28;;;;;;;8.20;4.50;;;;;;;13.95;81.52;98165.27;107874;1308;22276;-42
2023/03/24 07:53:54;;;;;;;8.70;3.80;;;;;;;14.00;80.98;98161.17;107843;1308;22219;-42
2023/03/24 07:56:19;;;;;;;8.00;4.40;;;;;;;13.98;80.11;98155.14;107875;1308;22254;-42
2023/03/24 07:58:46;;;;;;;7.80;4.50;;;;;;;13.91;80.17;98148.90;107851;1308;23142;-43
2023/03/24 08:01:11;;;;;;;7.60;4.20;;;;;;;13.98;80.53;98139.33;107873;1308;22441;-42
2023/03/24 08:03:37;;;;;;;6.40;4.00;;;;;;;14.14;80.45;98144.38;107864;1308;22215;-42
2023/03/24 08:06:15;;;;;;;9.70;3.90;;;;;;;14.27;79.99;98142.38;107877;1308;23041;-42
2023/03/24 08:08:40;;;;;;;7.40;3.60;;;;;;;14.42;79.67;98138.27;107878;1308;22288;-42
2023/03/24 08:11:06;;;;;;;12.80;4.00;;;;;;;14.70;79.53;98136.13;107430;1308;22253;-42
2023/03/24 08:13:31;;;;;;;5.30;4.20;;;;;;;14.96;78.88;98133.39;107855;1308;22237;-42
2023/03/24 08:15:57;;;;;;;7.50;4.10;;;;;;;14.99;77.51;98132.58;107856;1308;22249;-42
2023/03/24 08:18:24;;;;;;;7.70;3.70;;;;;;;15.06;77.36;98125.04;107867;1308;22243;-42
2023/03/24 08:20:57;;;;;;;6.50;3.80;;;;;;;15.04;75.44;98123.90;107884;1308;23040;-42
2023/03/24 08:23:23;;;;;;;6.20;4.00;;;;;;;15.14;75.32;98121.88;107868;1308;22239;-42
2023/03/24 08:25:50;;;;;;;7.60;4.20;;;;;;;15.26;74.91;98117.52;107861;1308;22257;-42
2023/03/24 08:28:15;;;;;;;5.90;3.60;;;;;;;15.43;74.41;98115.64;107870;1308;22386;-42
2023/03/24 08:30:42;;;;;;;8.50;4.10;;;;;;;15.60;74.61;98115.83;107755;1308;23198;-42
2023/03/24 08:33:10;;;;;;;8.50;3.30;;;;;;;15.78;74.55;98112.91;107884;1308;22356;-42
2023/03/24 08:35:39;;;;;;;9.80;3.10;;;;;;;15.86;72.67;98107.38;107672;1308;22242;-42
2023/03/24 08:38:10;;;;;;;5.10;3.00;;;;;;;15.97;72.88;98110.00;107862;1308;23004;-42
2023/03/24 08:40:37;;;;;;;6.60;2.90;;;;;;;15.99;71.51;98107.73;107850;1308;22163;-42
2023/03/24 08:43:09;;;;;;;7.90;2.80;;;;;;;16.02;71.14;98105.15;107837;1308;22233;-41
2023/03/24 08:45:35;;;;;;;4.10;2.80;;;;;;;16.02;70.95;98105.81;107874;1308;22211;-42
2023/03/24 08:48:03;;;;;;;5.40;3.50;;;;;;;16.01;70.41;98099.53;107872;1308;23098;-41
2023/03/24 08:50:33;;;;;;;7.20;3.10;;;;;;;16.05;70.27;98104.26;107852;1308;23205;-41
2023/03/24 08:52:59;;;;;;;6.60;3.10;;;;;;;16.14;70.54;98108.36;107847;1308;22246;-41
2023/03/24 08:55:25;;;;;;;6.60;2.60;;;;;;;16.20;70.64;98109.19;107894;1308;22453;-41
2023/03/24 08:57:51;;;;;;;4.40;2.90;;;;;;;16.08;69.52;98106.77;107853;1308;22420;-41
2023/03/24 09:00:17;;;;;;;7.40;2.80;;;;;;;16.02;69.35;98110.25;107880;1308;22225;-45
2023/03/24 09:02:53;;;;;;;9.00;3.20;;;;;;;15.95;69.43;98114.57;107930;1307;22317;-43
2023/03/24 09:05:22;;;;;;;7.00;3.70;;;;;;;15.84;69.61;98113.55;108048;1307;22682;-42
2023/03/24 09:08:06;;;;;;;5.70;3.00;;;;;;;15.78;70.22;98109.58;108008;1307;22236;-41
2023/03/24 09:10:37;;;;;;;5.30;3.50;;;;;;;15.68;70.57;98105.19;108034;1307;22902;-41
2023/03/24 09:13:03;;;;;;;5.00;3.10;;;;;;;15.58;70.99;98098.26;107862;1307;22332;-41
2023/03/24 09:15:28;;;;;;;5.60;3.50;;;;;;;15.52;70.95;98092.71;107998;1307;22965;-41
2023/03/24 09:17:53;;;;;;;6.80;3.40;;;;;;;15.47;71.02;98092.25;108013;1307;22226;-41
2023/03/24 09:20:19;;;;;;;7.70;3.20;;;;;;;15.46;71.09;98089.91;108001;1307;22258;-42
2023/03/24 09:22:46;;;;;;;5.80;3.20;;;;;;;15.42;71.38;98089.58;108004;1307;22231;-41
2023/03/24 09:25:15;;;;;;;4.10;3.00;;;;;;;15.42;71.56;98090.16;108005;1307;23331;-42
2023/03/24 09:27:41;;;;;;;7.90;3.20;;;;;;;15.40;71.18;98089.08;107822;1307;22227;-41
2023/03/24 09:30:08;;;;;;;5.00;3.00;;;;;;;15.38;71.15;98088.92;107862;1308;22963;-41
2023/03/24 09:32:33;;;;;;;4.60;3.40;;;;;;;15.35;70.96;98083.70;107911;1301;22321;-44
2023/03/24 09:35:00;;;;;;;7.20;3.50;;;;;;;15.33;70.99;98085.11;107980;1302;22262;-42
2023/03/24 09:37:29;;;;;;;3.80;3.30;;;;;;;15.36;71.05;98083.29;108009;1300;22400;-43
2023/03/24 09:39:54;;;;;;;7.80;3.10;;;;;;;15.35;70.99;98080.31;107944;1298;23263;-43
2023/03/24 09:42:24;;;;;;;8.30;3.40;;;;;;;15.36;70.86;98072.64;107841;1308;22330;-43
2023/03/24 09:44:55;;;;;;;6.40;3.10;;;;;;;15.40;70.64;98072.15;107914;1305;22230;-42
2023/03/24 09:47:41;;;;;;;3.80;2.90;;;;;;;15.45;71.35;98079.91;107763;1302;23452;-43
2023/03/24 09:50:42;;;;;;;6.60;3.00;;;;;;;15.53;71.47;98070.90;108011;1307;23017;-45
2023/03/24 09:53:35;;;;;;;6.00;3.00;;;;;;;15.61;71.59;98067.51;107519;1307;22534;-45
2023/03/24 09:56:10;;;;;;;6.70;3.00;;;;;;;15.64;71.37;98068.78;107736;1301;22365;-42
2023/03/24 09:58:35;;;;;;;10.30;3.50;;;;;;;15.61;70.41;98068.53;107986;1307;22411;-44
2023/03/24 10:01:01;;;;;;;3.30;2.60;;;;;;;15.61;70.70;98069.44;107976;1299;23110;-43
2023/03/24 10:03:26;;;;;;;3.20;2.90;;;;;;;15.56;70.04;98070.05;107994;1307;22351;-43
2023/03/24 10:06:03;;;;;;;4.40;2.70;;;;;;;15.57;70.07;98066.63;107968;1302;23295;-43
2023/03/24 10:08:35;;;;;;;8.70;2.80;;;;;;;15.54;69.97;98062.70;108012;1307;22307;-42
2023/03/24 10:11:23;;;;;;;4.70;2.80;;;;;;;15.56;70.11;98055.73;108022;1302;23059;-42
2023/03/24 10:14:11;;;;;;;5.10;3.10;;;;;;;15.52;70.01;98049.73;107908;1307;23003;-43
2023/03/24 10:16:57;;;;;;;3.90;3.10;;;;;;;15.49;69.74;98052.40;108018;1299;22349;-43
2023/03/24 10:19:51;;;;;;;5.60;3.00;;;;;;;15.47;69.82;98049.06;107773;1302;22273;-43
2023/03/24 10:22:31;;;;;;;5.00;3.40;;;;;;;15.49;70.23;98048.27;108001;1307;23204;-44
2023/03/24 10:25:24;;;;;;;4.30;3.00;;;;;;;15.51;70.34;98044.58;108021;1307;22890;-43
2023/03/24 10:28:16;;;;;;;4.80;3.40;;;;;;;15.45;69.98;98044.96;108039;1307;22254;-42
2023/03/24 10:30:43;;;;;;;4.00;3.20;;;;;;;15.47;69.77;98044.42;107030;1310;22275;-42
2023/03/24 10:33:10;;;;;;;3.10;2.50;;;;;;;15.48;69.71;98040.43;106929;1310;23491;-43
2023/03/24 10:36:00;;;;;;;4.10;2.90;;;;;;;15.46;69.64;98038.86;106985;1303;22322;-42
2023/03/24 10:38:26;;;;;;;5.00;2.30;;;;;;;15.48;69.71;98034.10;107063;1316;22247;-42
2023/03/24 10:40:53;;;;;;;4.00;2.80;;;;;;;15.50;69.62;98034.94;107028;1316;22431;-44
2023/03/24 10:43:19;;;;;;;2.90;2.60;;;;;;;15.48;69.31;98031.04;107081;1316;23088;-43
2023/03/24 10:45:48;;;;;;;3.40;2.60;;;;;;;15.51;69.50;98033.83;107045;1316;22491;-44
2023/03/24 10:48:32;;;;;;;4.20;2.80;;;;;;;15.54;69.60;98034.58;106992;1310;22280;-42
2023/03/24 10:50:57;;;;;;;5.30;3.20;;;;;;;15.56;69.53;98029.42;107087;1316;22381;-42
2023/03/24 10:53:23;;;;;;;3.40;2.90;;;;;;;15.58;69.28;98027.30;106978;1316;22307;-42
2023/03/24 10:55:49;;;;;;;6.30;3.30;;;;;;;15.61;69.23;98023.00;107047;1316;22260;-42
2023/03/24 10:58:36;;;;;;;6.80;2.80;;;;;;;15.64;69.53;98024.79;107010;1316;22248;-42
2023/03/24 11:01:04;;;;;;;6.50;2.70;;;;;;;15.70;69.41;98019.63;107010;1316;22429;-44
2023/03/24 11:03:33;;;;;;;5.60;2.80;;;;;;;15.75;69.04;98019.12;107077;1316;22280;-42
2023/03/24 11:06:01;;;;;;;3.30;2.30;;;;;;;15.79;68.86;98016.69;106902;1310;22368;-43
2023/03/24 11:08:38;;;;;;;2.90;2.60;;;;;;;15.82;68.82;98013.20;107516;1309;23229;-43
2023/03/24 11:11:14;;;;;;;4.60;3.20;;;;;;;15.86;68.45;98010.29;107754;1301;22375;-42
2023/03/24 11:13:39;;;;;;;6.40;3.70;;;;;;;15.89;68.55;98003.86;107686;1308;22244;-42
2023/03/24 11:16:14;;;;;;;3.80;2.90;;;;;;;15.97;68.47;98003.92;107727;1302;23397;-42
2023/03/24 11:18:57;;;;;;;7.50;3.20;;;;;;;16.13;68.52;97997.63;107687;1301;22870;-42
2023/03/24 11:21:23;;;;;;;9.10;3.40;;;;;;;16.37;67.70;97995.41;107694;1301;23276;-43
2023/03/24 11:23:49;;;;;;;4.20;2.90;;;;;;;16.81;67.10;97991.53;107716;1304;22320;-48
2023/03/24 11:26:33;;;;;;;3.10;2.40;;;;;;;17.25;65.15;97987.41;107631;1303;22224;-43
2023/03/24 11:29:26;;;;;;;5.40;3.30;;;;;;;17.85;63.51;97982.73;107697;1308;22359;-44
2023/03/24 11:32:00;;;;;;;2.60;2.40;;;;;;;18.75;61.13;97980.55;107741;1309;22262;-43
2023/03/24 11:34:33;;;;;;;5.50;2.30;;;;;;;19.62;58.24;97972.58;107757;1308;23123;-45
2023/03/24 11:37:05;;;;;;;3.80;2.40;;;;;;;20.39;56.17;97973.06;107708;1309;22373;-45
2023/03/24 11:39:33;;;;;;;3.40;2.60;;;;;;;20.94;53.29;97966.92;107684;1308;23218;-44